Time;durP1;ratioP1;P1;durP2;ratioP2;P2;SDS_P1;SDS_P2;PMS_P1;PMS_P2;Temp;Humidity;BMP_temperature;BMP_pressure;BME280_temperature;BME280_humidity;BME280_pressure;Samples;Min_cycle;Max_cycle;Signal;HPM_P1;HPM_P2
2021/01/28 00:05:01;;;;;;;0.20;0.20;;;9.80;99.90;;;;;;20609738;28;20744;-73
2021/01/28 00:15:04;;;;;;;0.70;0.60;;;9.60;99.90;;;;;;20610360;28;20240;-71
2021/01/28 00:25:12;;;;;;;0.70;0.53;;;9.70;99.90;;;;;;20611445;28;20961;-70
2021/01/28 00:35:33;;;;;;;0.97;0.47;;;9.70;99.90;;;;;;20605509;28;20692;-71
2021/01/28 00:45:37;;;;;;;0.77;0.77;;;9.80;99.90;;;;;;20603424;28;20234;-71
2021/01/28 00:55:40;;;;;;;0.80;0.80;;;9.10;99.90;;;;;;20605437;28;20233;-71
2021/01/28 01:05:45;;;;;;;0.40;0.30;;;9.60;99.90;;;;;;20617909;23;20235;-72
2021/01/28 01:15:48;;;;;;;3.00;1.10;;;9.10;99.90;;;;;;20606106;28;20192;-73
2021/01/28 01:25:53;;;;;;;5.60;1.73;;;9.40;99.90;;;;;;20611936;28;20215;-74
2021/01/28 01:35:56;;;;;;;0.40;0.40;;;9.40;99.90;;;;;;20581937;28;20610;-75
2021/01/28 01:46:04;;;;;;;0.57;0.57;;;9.30;99.90;;;;;;20538810;28;20224;-75
2021/01/28 01:56:10;;;;;;;1.47;1.37;;;9.10;99.90;;;;;;20613907;28;20793;-74
2021/01/28 02:06:27;;;;;;;2.97;1.53;;;9.60;99.90;;;;;;20617056;28;20235;-74
2021/01/28 02:16:32;;;;;;;3.03;1.00;;;9.80;99.90;;;;;;20617170;28;20200;-74
2021/01/28 02:26:39;;;;;;;1.43;1.07;;;10.80;99.90;;;;;;20616600;28;20199;-72
2021/01/28 02:36:44;;;;;;;0.20;0.20;;;10.10;99.90;;;;;;20574056;28;20223;-74
2021/01/28 02:46:48;;;;;;;1.00;0.77;;;10.10;99.90;;;;;;20581906;28;20210;-73
2021/01/28 02:56:52;;;;;;;0.67;0.50;;;10.10;99.90;;;;;;20612831;28;20540;-71
2021/01/28 03:06:56;;;;;;;1.23;1.07;;;10.90;99.90;;;;;;20613865;28;20238;-70
2021/01/28 03:16:58;;;;;;;0.93;0.73;;;11.20;99.90;;;;;;20615500;28;20503;-70
2021/01/28 03:27:02;;;;;;;1.50;1.40;;;11.30;99.90;;;;;;20614190;28;20290;-72
2021/01/28 03:37:05;;;;;;;3.40;1.60;;;11.40;99.90;;;;;;20612977;28;20926;-72
2021/01/28 03:47:09;;;;;;;0.87;0.70;;;11.60;99.90;;;;;;20610827;28;20281;-71
2021/01/28 03:57:12;;;;;;;1.60;1.40;;;11.90;99.90;;;;;;20612043;28;20613;-70
2021/01/28 04:07:16;;;;;;;1.97;1.20;;;12.00;99.90;;;;;;20753744;23;20240;-67
2021/01/28 04:17:19;;;;;;;2.67;0.97;;;11.90;99.90;;;;;;20773286;28;20702;-67
2021/01/28 04:27:22;;;;;;;2.33;1.33;;;12.40;99.90;;;;;;20767972;28;20543;-69
2021/01/28 04:37:27;;;;;;;1.57;0.80;;;11.90;99.90;;;;;;20771625;28;20857;-67
2021/01/28 04:47:36;;;;;;;0.77;0.77;;;11.60;99.90;;;;;;20775199;28;20580;-67
2021/01/28 04:57:39;;;;;;;0.60;0.30;;;11.90;99.90;;;;;;20777679;28;20230;-66
2021/01/28 05:07:42;;;;;;;1.27;1.17;;;12.20;99.90;;;;;;20791813;28;20617;-66
2021/01/28 05:17:59;;;;;;;2.13;1.10;;;11.60;99.90;;;;;;20789217;28;20804;-66
2021/01/28 05:28:21;;;;;;;1.47;1.37;;;11.40;99.90;;;;;;20790386;28;20190;-67
2021/01/28 05:38:28;;;;;;;0.23;0.13;;;12.00;99.90;;;;;;20728554;28;20329;-67
2021/01/28 05:48:31;;;;;;;1.03;0.83;;;11.90;99.90;;;;;;20702065;28;20297;-68
2021/01/28 05:58:41;;;;;;;1.80;1.13;;;12.10;99.90;;;;;;20787726;28;20229;-68
2021/01/28 06:09:03;;;;;;;0.60;0.57;;;12.30;99.90;;;;;;20784715;28;20291;-67
2021/01/28 06:19:31;;;;;;;0.43;0.40;;;12.20;99.90;;;;;;20786034;28;20411;-67
2021/01/28 06:29:50;;;;;;;1.10;0.53;;;12.30;99.90;;;;;;20784901;28;20272;-68
2021/01/28 06:39:57;;;;;;;0.20;0.17;;;12.40;99.90;;;;;;20745607;28;20245;-67
2021/01/28 06:50:06;;;;;;;1.80;1.07;;;12.10;99.90;;;;;;20781286;28;20190;-65
2021/01/28 07:00:21;;;;;;;0.73;0.73;;;11.80;99.90;;;;;;20777246;28;20248;-65
2021/01/28 07:10:31;;;;;;;0.93;0.77;;;11.50;99.90;;;;;;20783648;28;20505;-68
2021/01/28 07:20:38;;;;;;;3.93;1.23;;;11.40;99.90;;;;;;20778064;28;20241;-65
2021/01/28 07:30:44;;;;;;;1.80;1.27;;;11.30;99.90;;;;;;20777923;28;20277;-65
2021/01/28 07:40:59;;;;;;;0.33;0.30;;;11.10;99.90;;;;;;20695375;28;20214;-67
2021/01/28 07:51:34;;;;;;;2.30;1.57;;;11.10;99.90;;;;;;20775242;28;20209;-65
2021/01/28 08:01:38;;;;;;;2.60;1.70;;;11.30;99.90;;;;;;20771100;28;20299;-66
2021/01/28 08:11:47;;;;;;;2.90;2.47;;;11.60;99.90;;;;;;20772113;28;20267;-66
2021/01/28 08:22:03;;;;;;;8.83;1.47;;;11.80;99.90;;;;;;20768474;28;20226;-67
2021/01/28 08:32:25;;;;;;;3.80;2.27;;;12.20;99.90;;;;;;20756872;28;20212;-66
2021/01/28 08:42:28;;;;;;;6.83;3.17;;;12.70;99.90;;;;;;20775140;28;20697;-67
2021/01/28 08:52:33;;;;;;;4.30;2.47;;;13.00;99.90;;;;;;20748251;28;20198;-68
2021/01/28 09:02:39;;;;;;;1.63;1.33;;;13.70;99.90;;;;;;20769998;28;20285;-69
2021/01/28 09:12:43;;;;;;;0.50;0.50;;;14.90;99.90;;;;;;20749998;28;20195;-68
2021/01/28 09:22:46;;;;;;;9.17;0.83;;;15.20;99.90;;;;;;20672727;28;20477;-67
2021/01/28 09:32:52;;;;;;;0.53;0.53;;;15.30;99.90;;;;;;20756623;28;20244;-68
2021/01/28 09:43:23;;;;;;;2.03;1.23;;;15.50;99.90;;;;;;20772167;28;20582;-68
2021/01/28 09:53:27;;;;;;;0.53;0.37;;;15.70;99.90;;;;;;20767185;28;20650;-68
2021/01/28 10:03:29;;;;;;;0.40;0.40;;;15.80;99.90;;;;;;20785484;28;20269;-67
2021/01/28 10:13:33;;;;;;;2.40;1.53;;;16.60;99.90;;;;;;20783739;28;20597;-68
2021/01/28 10:23:39;;;;;;;4.53;1.17;;;16.10;99.90;;;;;;20790470;28;20226;-68
2021/01/28 10:33:42;;;;;;;1.20;1.10;;;16.30;99.90;;;;;;20773266;28;20205;-69
2021/01/28 10:43:46;;;;;;;1.33;0.83;;;16.90;99.90;;;;;;20776182;28;20295;-68
2021/01/28 10:53:50;;;;;;;1.57;1.47;;;17.00;99.90;;;;;;20774594;28;20251;-69
2021/01/28 11:03:52;;;;;;;5.53;2.00;;;17.80;99.90;;;;;;20777007;28;20307;-68
2021/01/28 11:13:56;;;;;;;1.93;0.90;;;18.40;99.90;;;;;;20772616;28;20272;-69
2021/01/28 11:23:58;;;;;;;1.70;0.93;;;19.00;99.90;;;;;;20776325;28;20702;-69
2021/01/28 11:34:02;;;;;;;3.60;1.27;;;19.60;99.90;;;;;;20776980;28;20300;-68
2021/01/28 11:44:06;;;;;;;2.73;1.70;;;20.10;99.90;;;;;;20774171;28;20327;-68
2021/01/28 11:54:10;;;;;;;0.80;0.80;;;20.60;99.90;;;;;;20755735;28;20607;-67
2021/01/28 12:04:15;;;;;;;5.00;1.73;;;19.40;99.90;;;;;;20774068;28;20677;-67
2021/01/28 12:14:18;;;;;;;6.10;1.77;;;20.50;99.90;;;;;;20771145;28;20202;-67
2021/01/28 12:24:21;;;;;;;3.37;0.97;;;21.90;99.90;;;;;;20775391;28;20609;-67
2021/01/28 12:34:26;;;;;;;2.57;1.67;;;20.80;99.90;;;;;;20754585;28;20190;-68
2021/01/28 12:44:29;;;;;;;0.77;0.70;;;19.80;99.90;;;;;;20770445;28;20229;-68
2021/01/28 12:54:32;;;;;;;1.37;1.27;;;21.50;99.90;;;;;;20767900;28;20722;-68
2021/01/28 13:04:37;;;;;;;1.60;1.37;;;21.10;99.90;;;;;;20765899;28;20237;-67
2021/01/28 13:14:42;;;;;;;2.30;2.00;;;22.50;99.90;;;;;;20766521;28;20204;-68
2021/01/28 13:24:46;;;;;;;1.37;1.27;;;21.20;99.90;;;;;;20780928;28;20264;-67
2021/01/28 13:34:50;;;;;;;1.60;1.50;;;20.30;99.90;;;;;;20778739;28;20809;-68
2021/01/28 13:44:52;;;;;;;4.67;1.80;;;17.80;99.90;;;;;;20783541;28;20238;-67
2021/01/28 13:54:56;;;;;;;3.30;2.20;;;18.10;99.90;;;;;;20780936;28;20214;-69
2021/01/28 14:05:00;;;;;;;4.73;2.30;;;18.10;99.90;;;;;;20783040;28;20237;-67
2021/01/28 14:15:04;;;;;;;4.07;2.37;;;18.10;99.90;;;;;;20764348;28;20352;-68
2021/01/28 14:25:08;;;;;;;3.80;1.87;;;18.30;99.90;;;;;;20780844;28;20237;-68
2021/01/28 14:35:13;;;;;;;3.90;2.27;;;18.20;99.90;;;;;;20776330;28;20194;-67
2021/01/28 15:06:53;;;;;;;1.87;1.70;;;17.40;99.90;;;;;;18612862;23;20244;-67
2021/01/28 15:16:57;;;;;;;4.13;2.97;;;18.10;99.90;;;;;;20334533;29;20209;-65
2021/01/28 15:27:04;;;;;;;3.13;1.63;;;18.70;99.90;;;;;;20318499;29;20572;-68
2021/01/28 15:37:07;;;;;;;1.93;1.80;;;18.10;99.90;;;;;;20362142;29;20285;-66
2021/01/28 15:47:15;;;;;;;8.63;2.87;;;18.50;99.90;;;;;;20369256;29;20230;-68
2021/01/28 15:57:18;;;;;;;3.60;2.13;;;17.90;99.90;;;;;;20366326;29;20356;-68
2021/01/28 16:07:28;;;;;;;4.53;1.97;;;17.50;99.90;;;;;;20420863;29;20326;-67
2021/01/28 16:17:31;;;;;;;2.60;2.23;;;18.40;99.90;;;;;;20380176;29;20209;-68
2021/01/28 16:27:35;;;;;;;3.40;2.87;;;17.40;99.90;;;;;;20364136;29;20693;-65
2021/01/28 16:37:38;;;;;;;9.63;2.37;;;16.60;99.90;;;;;;20367316;29;20221;-66
2021/01/28 16:47:43;;;;;;;3.20;2.60;;;16.20;99.90;;;;;;20358967;29;20659;-67
2021/01/28 16:57:46;;;;;;;2.70;1.97;;;15.50;99.90;;;;;;20297638;29;20198;-67
2021/01/28 17:07:50;;;;;;;7.87;2.47;;;15.10;99.90;;;;;;20379552;29;20671;-67
2021/01/28 17:17:53;;;;;;;5.00;2.27;;;14.70;99.90;;;;;;20391304;29;20919;-69
2021/01/28 17:28:00;;;;;;;3.97;1.77;;;14.40;99.90;;;;;;20379879;29;20194;-69
2021/01/28 17:38:04;;;;;;;3.47;1.37;;;13.90;99.90;;;;;;20378681;29;20194;-69
2021/01/28 17:48:10;;;;;;;2.23;2.03;;;13.80;99.90;;;;;;20377888;29;20194;-69
2021/01/28 17:58:13;;;;;;;2.80;2.30;;;13.50;99.90;;;;;;20378250;29;20310;-68
2021/01/28 18:08:17;;;;;;;2.27;1.80;;;13.20;99.90;;;;;;20373519;29;20228;-70
2021/01/28 18:18:32;;;;;;;4.93;3.27;;;12.90;99.90;;;;;;20369445;29;20404;-69
2021/01/28 18:28:35;;;;;;;2.33;2.13;;;12.90;99.90;;;;;;20376840;29;20772;-70
2021/01/28 18:38:38;;;;;;;1.53;1.43;;;12.80;99.90;;;;;;20376352;29;20698;-69
2021/01/28 18:48:52;;;;;;;4.33;1.50;;;12.70;99.90;;;;;;20371178;29;20382;-69
2021/01/28 18:58:55;;;;;;;2.23;2.03;;;12.80;99.90;;;;;;20301241;29;20236;-68
2021/01/28 19:09:00;;;;;;;6.40;2.70;;;12.60;99.90;;;;;;20332071;29;20587;-68
2021/01/28 19:19:03;;;;;;;1.43;1.07;;;12.70;99.90;;;;;;20367937;29;20509;-69
2021/01/28 19:29:07;;;;;;;2.80;2.10;;;12.50;99.90;;;;;;20365479;29;20212;-69
2021/01/28 19:39:19;;;;;;;1.80;1.67;;;12.20;99.90;;;;;;20388555;23;20805;-69
2021/01/28 19:49:23;;;;;;;1.80;1.43;;;11.90;99.90;;;;;;20543992;28;20188;-69
2021/01/28 19:59:31;;;;;;;2.13;1.50;;;11.90;99.90;;;;;;20526696;28;20220;-69
2021/01/28 20:09:47;;;;;;;6.10;2.13;;;11.60;99.90;;;;;;20545223;28;20203;-68
2021/01/28 20:19:50;;;;;;;2.50;1.70;;;11.70;99.90;;;;;;20529379;28;20260;-68
2021/01/28 20:29:57;;;;;;;3.53;1.87;;;11.40;99.90;;;;;;20527621;28;20561;-68
2021/01/28 20:40:06;;;;;;;1.13;1.03;;;11.50;99.90;;;;;;20526429;28;20330;-69
2021/01/28 20:50:11;;;;;;;2.30;2.07;;;11.50;99.90;;;;;;20527304;28;20279;-68
2021/01/28 21:00:21;;;;;;;3.77;1.43;;;11.30;99.90;;;;;;20527519;28;20689;-69
2021/01/28 21:10:26;;;;;;;4.40;2.23;;;11.10;99.90;;;;;;20521153;28;20522;-69
2021/01/28 21:20:34;;;;;;;1.40;1.07;;;11.10;99.90;;;;;;20544186;28;20232;-70
2021/01/28 21:30:53;;;;;;;6.73;1.93;;;11.00;99.90;;;;;;20526551;28;20675;-70
2021/01/28 21:40:58;;;;;;;1.33;1.23;;;11.00;99.90;;;;;;20531461;28;20881;-68
2021/01/28 21:51:05;;;;;;;1.23;1.17;;;11.00;99.90;;;;;;20542179;28;20240;-67
2021/01/28 22:01:29;;;;;;;1.73;1.53;;;10.80;99.90;;;;;;20542635;28;20244;-69
2021/01/28 22:24:07;;;;;;;1.97;1.10;;;10.90;99.90;;;;;;20394244;28;20218;-68
2021/01/28 23:42:23;;;;;;;3.47;1.33;;;10.30;99.90;;;;;;16197222;28;20233;-67
2021/01/28 23:52:26;;;;;;;1.03;0.93;;;10.10;99.90;;;;;;20649970;28;20198;-67
